Millerville, Alabama
Current Conditions -  °F | °C
As of 5:15 PM on Tuesday 27 Jan 2015 (Local Time) from KALX Reporting Station
Clear Clear  
Wind Chill: 54°   Ceiling: Unl
Heat Index: 54°   Visibility: 10mi
Dew Point: 26°   Wind: 8mph
Humidity: 33%   Direction: 330°NNW
Pressure: 30.04"   Gusts: NA
Location:  33.19°N, 85.93°W
Report Text: KALX 272315Z AUTO 33007KT 10SM CLR 12/M03 A3004 RMK AO2 T01231035
Loading
Personal Weather Stations






























Interactive Weather Map New forecast layout! Learn more

10-Day Weather Forecast

Advertisements
Track Severe Weather on mobile